createdAt,value
2017-09-28T00:01:50.252Z,93.00
2017-09-28T00:05:00.439Z,92.90
2017-09-28T00:08:10.353Z,92.50
2017-09-28T00:11:21.868Z,92.90
2017-09-28T00:14:32.618Z,93.20
2017-09-28T00:17:43.625Z,92.50
2017-09-28T00:20:54.766Z,93.00
2017-09-28T00:24:05.526Z,93.00
2017-09-28T00:27:15.563Z,92.90
2017-09-28T00:30:27.671Z,93.10
2017-09-28T00:33:37.559Z,93.10
2017-09-28T00:36:48.271Z,93.30
2017-09-28T00:39:58.193Z,93.20
2017-09-28T00:43:09.732Z,92.50
2017-09-28T00:46:20.564Z,92.70
2017-09-28T00:49:30.951Z,92.80
2017-09-28T00:52:42.331Z,92.90
2017-09-28T00:55:52.773Z,93.20
2017-09-28T00:59:02.587Z,93.10
2017-09-28T01:02:13.143Z,92.90
2017-09-28T01:05:22.563Z,93.30
2017-09-28T01:08:32.352Z,92.80
2017-09-28T01:11:42.844Z,92.90
2017-09-28T01:14:52.994Z,93.40
2017-09-28T01:18:03.142Z,93.50
2017-09-28T01:21:12.922Z,93.20
2017-09-28T01:24:23.039Z,94.10
2017-09-28T01:27:33.075Z,94.20
2017-09-28T01:30:43.157Z,94.70
2017-09-28T01:33:53.532Z,94.80
2017-09-28T01:37:03.164Z,95.30
2017-09-28T01:40:13.540Z,95.70
2017-09-28T01:46:34.299Z,95.60
2017-09-28T01:49:44.338Z,95.60
2017-09-28T01:52:54.086Z,95.80
2017-09-28T01:56:04.535Z,96.00
2017-09-28T01:59:15.292Z,95.60
2017-09-28T02:02:25.333Z,95.60
2017-09-28T02:05:35.234Z,95.90
2017-09-28T02:08:45.045Z,96.00
2017-09-28T02:11:55.438Z,95.80
2017-09-28T02:15:06.111Z,95.60
2017-09-28T02:18:16.671Z,95.80
2017-09-28T02:21:27.250Z,95.80
2017-09-28T02:24:37.251Z,95.80
2017-09-28T02:27:47.000Z,95.70
2017-09-28T02:30:57.867Z,95.50
2017-09-28T02:34:08.430Z,95.40
2017-09-28T02:37:18.313Z,95.70
2017-09-28T02:40:28.616Z,95.40
2017-09-28T02:43:38.648Z,95.50
2017-09-28T02:46:49.402Z,95.40
2017-09-28T02:49:59.430Z,95.50
2017-09-28T02:53:09.457Z,95.50
2017-09-28T02:56:19.360Z,95.40
2017-09-28T02:59:29.464Z,95.30
2017-09-28T03:02:39.405Z,95.50
2017-09-28T03:05:49.408Z,95.30
2017-09-28T03:09:01.479Z,95.30
2017-09-28T03:12:11.794Z,95.30
2017-09-28T03:15:22.145Z,95.10
2017-09-28T03:18:32.324Z,95.30
2017-09-28T03:21:43.947Z,95.40
2017-09-28T03:24:54.656Z,95.60
2017-09-28T03:28:05.122Z,95.60
2017-09-28T03:31:16.863Z,95.90
2017-09-28T03:34:27.150Z,95.90
2017-09-28T03:37:37.863Z,95.40
2017-09-28T03:40:48.515Z,95.40
2017-09-28T03:43:58.560Z,95.10
2017-09-28T03:47:08.828Z,95.20
2017-09-28T03:50:19.111Z,95.40
2017-09-28T03:53:29.335Z,95.70
2017-09-28T03:56:39.639Z,95.50
2017-09-28T03:59:50.038Z,95.40
2017-09-28T04:03:01.586Z,95.30
2017-09-28T04:06:12.355Z,95.20
2017-09-28T04:09:22.101Z,95.40
2017-09-28T04:12:32.228Z,95.40
2017-09-28T04:15:42.698Z,95.30
2017-09-28T04:18:53.113Z,95.30
2017-09-28T04:22:03.167Z,95.40
2017-09-28T04:25:12.858Z,95.80
2017-09-28T04:28:23.157Z,95.80
2017-09-28T04:31:33.038Z,95.70
2017-09-28T04:34:43.181Z,95.90
2017-09-28T04:37:54.070Z,95.90
2017-09-28T04:41:04.793Z,96.10
2017-09-28T04:44:14.934Z,96.10
2017-09-28T04:47:25.151Z,96.10
2017-09-28T04:50:35.179Z,96.10
2017-09-28T04:53:44.965Z,96.60
2017-09-28T04:56:55.178Z,96.30
2017-09-28T05:00:05.502Z,96.60
2017-09-28T05:03:16.124Z,96.20
2017-09-28T05:06:26.410Z,96.10
2017-09-28T05:09:37.310Z,95.90
2017-09-28T05:12:47.515Z,95.90
2017-09-28T05:15:57.883Z,96.00
2017-09-28T05:19:08.228Z,95.80
2017-09-28T05:22:18.402Z,95.80
2017-09-28T05:25:28.401Z,95.80
2017-09-28T05:28:38.279Z,95.70
2017-09-28T05:31:48.998Z,96.00
2017-09-28T05:34:59.076Z,96.00
2017-09-28T05:38:09.039Z,96.30
2017-09-28T05:41:18.738Z,96.50
2017-09-28T05:44:29.630Z,96.40
2017-09-28T05:47:39.836Z,96.40
2017-09-28T05:50:49.582Z,96.20
2017-09-28T05:53:59.431Z,96.00
2017-09-28T05:57:09.468Z,96.30
2017-09-28T06:00:19.961Z,96.10
2017-09-28T06:03:30.994Z,96.30
2017-09-28T06:06:41.589Z,96.30
2017-09-28T06:09:51.506Z,96.30
2017-09-28T06:13:01.664Z,96.30
2017-09-28T06:16:13.649Z,96.30
2017-09-28T06:19:23.832Z,96.50
2017-09-28T06:22:34.070Z,96.50
2017-09-28T06:25:43.903Z,96.50
2017-09-28T06:28:53.857Z,96.50
2017-09-28T06:32:04.091Z,96.30
2017-09-28T06:35:14.116Z,96.40
2017-09-28T06:38:25.256Z,96.10
2017-09-28T06:41:36.385Z,96.00
2017-09-28T06:44:47.135Z,96.30
2017-09-28T06:47:59.085Z,95.80
2017-09-28T06:51:08.927Z,96.10
2017-09-28T06:54:19.040Z,96.00
2017-09-28T06:57:29.081Z,95.90
2017-09-28T07:00:39.963Z,95.70
2017-09-28T07:03:50.176Z,95.60
2017-09-28T07:07:00.407Z,95.10
2017-09-28T07:10:11.597Z,95.10
2017-09-28T07:13:21.516Z,95.30
2017-09-28T07:16:31.341Z,94.90
2017-09-28T07:19:42.215Z,95.40
2017-09-28T07:22:52.300Z,94.60
2017-09-28T07:26:02.340Z,94.30
2017-09-28T07:29:12.171Z,94.20
2017-09-28T07:32:22.046Z,93.90
2017-09-28T07:35:32.291Z,94.40
2017-09-28T07:38:42.557Z,94.50
2017-09-28T07:41:52.539Z,94.30
2017-09-28T07:45:02.408Z,94.00
2017-09-28T07:48:12.309Z,94.20
2017-09-28T07:51:22.271Z,94.00
2017-09-28T07:54:32.502Z,94.10
2017-09-28T07:57:43.156Z,93.10
2017-09-28T08:00:53.307Z,93.60
2017-09-28T08:04:03.420Z,92.90
2017-09-28T08:07:14.200Z,92.50
2017-09-28T08:10:24.836Z,92.70
2017-09-28T08:13:35.093Z,92.80
2017-09-28T08:16:46.119Z,92.70
2017-09-28T08:23:08.158Z,92.70
2017-09-28T08:26:18.443Z,92.60
2017-09-28T08:29:29.206Z,91.50
2017-09-28T08:32:40.370Z,90.90
2017-09-28T08:35:51.127Z,90.90
2017-09-28T08:39:01.861Z,91.70
2017-09-28T08:42:11.971Z,91.60
2017-09-28T08:45:22.327Z,91.60
2017-09-28T08:48:33.171Z,89.60
2017-09-28T08:51:43.387Z,89.50
2017-09-28T08:54:54.343Z,91.00
2017-09-28T09:01:15.715Z,90.80
2017-09-28T09:04:26.400Z,90.50
2017-09-28T09:07:36.941Z,90.50
2017-09-28T09:10:47.435Z,88.20
2017-09-28T09:13:57.352Z,88.80
2017-09-28T09:17:08.186Z,87.20
2017-09-28T09:20:18.605Z,87.20
2017-09-28T09:23:28.696Z,88.20
2017-09-28T09:26:39.055Z,86.50
2017-09-28T09:29:48.927Z,83.10
2017-09-28T09:32:59.063Z,81.70
2017-09-28T09:36:09.197Z,82.50
2017-09-28T09:39:19.330Z,80.80
2017-09-28T09:42:29.249Z,82.20
2017-09-28T09:45:39.425Z,83.20
2017-09-28T09:48:49.236Z,82.90
2017-09-28T09:52:00.085Z,81.00
2017-09-28T09:55:10.989Z,81.00
2017-09-28T09:58:21.191Z,77.70
2017-09-28T10:01:31.380Z,77.00
2017-09-28T10:04:41.096Z,74.80
2017-09-28T10:08:00.821Z,75.30
2017-09-28T10:11:15.368Z,75.30
2017-09-28T10:14:35.306Z,75.50
2017-09-28T10:17:45.950Z,75.30
2017-09-28T10:20:57.444Z,73.70
2017-09-28T10:24:07.478Z,70.10
2017-09-28T10:27:18.320Z,72.20
2017-09-28T10:30:28.583Z,72.30
2017-09-28T10:33:39.402Z,70.00
2017-09-28T10:36:49.614Z,70.70
2017-09-28T10:40:00.090Z,71.60
2017-09-28T10:43:10.332Z,68.40
2017-09-28T10:46:21.027Z,68.90
2017-09-28T10:49:31.497Z,68.90
2017-09-28T10:52:42.272Z,68.50
2017-09-28T10:55:52.050Z,67.20
2017-09-28T10:59:02.994Z,69.50
2017-09-28T11:02:16.324Z,68.60
2017-09-28T11:05:29.092Z,69.10
2017-09-28T11:08:39.522Z,68.30
2017-09-28T11:11:49.413Z,68.80
2017-09-28T11:14:59.413Z,67.00
2017-09-28T11:18:11.333Z,69.20
2017-09-28T11:21:21.413Z,69.20
2017-09-28T11:24:32.300Z,69.30
2017-09-28T11:27:42.331Z,69.30
2017-09-28T11:30:52.180Z,69.40
2017-09-28T11:34:02.219Z,68.00
2017-09-28T11:37:12.080Z,69.70
2017-09-28T11:40:22.947Z,70.20
2017-09-28T11:43:33.118Z,70.20
2017-09-28T11:46:43.507Z,69.00
2017-09-28T11:49:53.660Z,69.90
2017-09-28T11:53:03.594Z,67.50
2017-09-28T11:56:13.652Z,67.90
2017-09-28T11:59:24.715Z,70.10
2017-09-28T12:02:35.526Z,68.80
2017-09-28T12:05:46.761Z,68.90
2017-09-28T12:08:56.971Z,68.80
2017-09-28T12:12:07.650Z,68.20
2017-09-28T12:15:17.371Z,68.10
2017-09-28T12:18:27.572Z,69.70
2017-09-28T12:21:38.209Z,67.40
2017-09-28T12:24:48.216Z,69.00
2017-09-28T12:27:58.568Z,69.80
2017-09-28T12:31:08.511Z,68.30
2017-09-28T12:34:18.490Z,68.50
2017-09-28T12:37:29.496Z,68.40
2017-09-28T12:40:44.970Z,68.30
2017-09-28T12:43:55.028Z,68.90
2017-09-28T12:47:05.877Z,68.80
2017-09-28T12:50:15.958Z,67.90
2017-09-28T12:53:26.726Z,68.90
2017-09-28T12:56:37.350Z,67.70
2017-09-28T12:59:48.307Z,68.30
2017-09-28T13:02:58.592Z,68.50
2017-09-28T13:06:10.239Z,69.30
2017-09-28T13:09:21.123Z,70.20
2017-09-28T13:12:31.453Z,70.10
2017-09-28T13:15:41.506Z,69.80
2017-09-28T13:18:52.390Z,71.50
2017-09-28T13:22:04.973Z,71.80
2017-09-28T13:25:17.252Z,71.80
2017-09-28T13:28:27.274Z,71.20
2017-09-28T13:31:37.241Z,70.30
2017-09-28T13:34:47.372Z,71.20
2017-09-28T13:37:57.123Z,71.60
2017-09-28T13:41:09.322Z,71.10
2017-09-28T13:44:19.205Z,71.50
2017-09-28T13:47:29.466Z,71.20
2017-09-28T13:50:39.499Z,70.90
2017-09-28T13:53:52.000Z,71.10
2017-09-28T13:57:02.711Z,70.90
2017-09-28T14:00:12.801Z,71.80
2017-09-28T14:03:23.298Z,70.00
2017-09-28T14:09:40.382Z,70.90
2017-09-28T14:12:50.742Z,71.50
2017-09-28T14:16:00.563Z,71.90
2017-09-28T14:19:10.980Z,69.10
2017-09-28T14:22:21.057Z,71.60
2017-09-28T14:25:31.112Z,72.10
2017-09-28T14:28:41.421Z,71.10
2017-09-28T14:31:52.785Z,72.90
2017-09-28T14:35:03.038Z,72.90
2017-09-28T14:38:12.856Z,69.90
2017-09-28T14:41:22.831Z,69.80
2017-09-28T14:44:33.654Z,71.10
2017-09-28T14:47:43.924Z,71.00
2017-09-28T14:50:53.786Z,70.50
2017-09-28T14:54:03.738Z,71.30
2017-09-28T14:57:14.477Z,71.00
2017-09-28T15:00:24.815Z,70.90
2017-09-28T15:03:35.725Z,73.20
2017-09-28T15:06:45.861Z,73.10
2017-09-28T15:09:55.965Z,72.60
2017-09-28T15:13:05.914Z,73.50
2017-09-28T15:16:16.636Z,71.60
2017-09-28T15:19:26.976Z,71.10
2017-09-28T15:22:37.314Z,71.40
2017-09-28T15:25:47.263Z,71.50
2017-09-28T15:28:57.242Z,72.00
2017-09-28T15:32:07.341Z,70.00
2017-09-28T15:35:17.490Z,70.80
2017-09-28T15:38:28.384Z,71.40
2017-09-28T15:41:38.488Z,71.30
2017-09-28T15:44:48.496Z,71.50
2017-09-28T15:47:58.615Z,72.60
2017-09-28T15:51:08.476Z,72.40
2017-09-28T15:54:20.057Z,74.40
2017-09-28T15:57:30.455Z,74.90
2017-09-28T16:00:40.567Z,74.60
2017-09-28T16:03:50.361Z,75.00
2017-09-28T16:07:01.404Z,76.30
2017-09-28T16:10:11.302Z,76.20
2017-09-28T16:13:21.629Z,76.10
2017-09-28T16:16:31.953Z,76.60
2017-09-28T16:19:41.797Z,76.30
2017-09-28T16:22:51.654Z,76.90
2017-09-28T16:26:01.924Z,77.60
2017-09-28T16:29:11.885Z,78.90
2017-09-28T16:32:22.162Z,77.80
2017-09-28T16:35:32.039Z,78.30
2017-09-28T16:38:41.833Z,78.60
2017-09-28T16:41:57.168Z,78.90
2017-09-28T16:45:07.771Z,79.90
2017-09-28T16:48:17.891Z,79.80
2017-09-28T16:51:27.740Z,80.50
2017-09-28T16:54:37.781Z,81.20
2017-09-28T16:57:48.033Z,81.40
2017-09-28T17:00:58.078Z,81.60
2017-09-28T17:04:08.133Z,81.90
2017-09-28T17:07:17.937Z,82.30
2017-09-28T17:10:28.918Z,81.40
2017-09-28T17:13:39.011Z,81.40
2017-09-28T17:16:50.046Z,83.10
2017-09-28T17:20:01.055Z,83.70
2017-09-28T17:23:11.264Z,82.80
2017-09-28T17:26:20.783Z,82.30
2017-09-28T17:29:30.797Z,82.70
2017-09-28T17:32:41.526Z,83.10
2017-09-28T17:35:51.528Z,83.30
2017-09-28T17:39:01.786Z,83.40
2017-09-28T17:42:12.367Z,84.30
2017-09-28T17:45:22.741Z,84.30
2017-09-28T17:48:32.814Z,84.60
2017-09-28T17:51:43.415Z,85.00
2017-09-28T17:54:53.302Z,84.90
2017-09-28T17:58:03.774Z,85.10
2017-09-28T18:01:15.229Z,85.90
2017-09-28T18:04:25.783Z,85.80
2017-09-28T18:07:36.393Z,86.80
2017-09-28T18:14:04.139Z,86.30
2017-09-28T18:17:14.262Z,86.70
2017-09-28T18:20:24.353Z,87.20
2017-09-28T18:23:35.122Z,88.00
2017-09-28T18:26:45.925Z,88.60
2017-09-28T18:29:56.970Z,88.50
2017-09-28T18:33:07.166Z,88.40
2017-09-28T18:36:17.949Z,88.70
2017-09-28T18:39:28.766Z,88.20
2017-09-28T18:42:38.856Z,88.80
2017-09-28T18:45:49.592Z,89.00
2017-09-28T18:48:59.716Z,89.50
2017-09-28T18:52:09.614Z,89.70
2017-09-28T18:55:19.646Z,89.90
2017-09-28T18:58:29.644Z,90.00
2017-09-28T19:01:39.501Z,90.10
2017-09-28T19:04:49.392Z,90.10
2017-09-28T19:07:59.229Z,90.10
2017-09-28T19:11:09.873Z,90.20
2017-09-28T19:14:20.409Z,90.30
2017-09-28T19:17:30.653Z,90.30
2017-09-28T19:20:40.902Z,90.20
2017-09-28T20:35:46.953Z,90.40
2017-09-28T20:38:56.847Z,90.80
2017-09-28T20:42:07.676Z,90.50
2017-09-28T20:45:18.037Z,90.60
2017-09-28T20:48:27.935Z,90.90
2017-09-28T20:51:37.687Z,90.70
2017-09-28T20:54:48.083Z,90.70
2017-09-28T20:57:59.091Z,90.60
2017-09-28T21:01:09.393Z,90.60
2017-09-28T21:04:19.409Z,90.90
2017-09-28T21:07:30.112Z,90.70
2017-09-28T21:10:40.202Z,90.90
2017-09-28T21:13:50.056Z,90.90
2017-09-28T21:16:59.993Z,90.90
2017-09-28T21:20:09.982Z,91.00
2017-09-28T21:23:20.223Z,91.00
2017-09-28T21:26:31.216Z,90.60
2017-09-28T21:29:41.741Z,90.60
2017-09-28T21:32:53.392Z,90.70
2017-09-28T21:36:03.952Z,90.60
2017-09-28T21:39:14.697Z,90.90
2017-09-28T21:42:25.896Z,90.70
2017-09-28T21:45:35.901Z,90.60
2017-09-28T21:48:46.457Z,90.80
2017-09-28T21:51:56.930Z,90.90
2017-09-28T21:55:07.509Z,90.60
2017-09-28T21:58:17.747Z,90.90
2017-09-28T22:01:28.612Z,91.00
2017-09-28T22:04:39.092Z,90.90
2017-09-28T22:07:49.195Z,91.00
2017-09-28T22:10:59.837Z,91.30
2017-09-28T22:14:10.102Z,91.30
2017-09-28T22:17:20.172Z,91.10
2017-09-28T22:20:30.181Z,91.10
2017-09-28T22:23:40.789Z,91.40
2017-09-28T22:26:50.442Z,91.40
2017-09-28T22:30:00.751Z,91.40
2017-09-28T22:33:11.250Z,91.20
2017-09-28T22:36:21.174Z,91.20
2017-09-28T22:39:31.148Z,91.10
2017-09-28T22:42:41.048Z,90.90
2017-09-28T22:45:51.366Z,91.00
2017-09-28T22:49:01.262Z,91.10
2017-09-28T22:52:11.232Z,90.90
2017-09-28T22:55:21.151Z,91.10
2017-09-28T22:58:31.119Z,90.80
2017-09-28T23:01:41.887Z,91.00
2017-09-28T23:04:52.172Z,91.00
2017-09-28T23:08:02.034Z,90.90
2017-09-28T23:11:12.832Z,90.60
2017-09-28T23:14:23.935Z,90.80
2017-09-28T23:17:34.032Z,90.80
2017-09-28T23:20:43.827Z,90.90
2017-09-28T23:23:54.774Z,91.00
2017-09-28T23:27:05.084Z,91.00
2017-09-28T23:30:15.184Z,90.80
2017-09-28T23:33:25.242Z,90.90
2017-09-28T23:36:35.866Z,91.40
2017-09-28T23:39:45.809Z,91.30
2017-09-28T23:42:55.597Z,91.30
2017-09-28T23:46:05.944Z,91.50
2017-09-28T23:49:15.807Z,91.40
2017-09-28T23:52:26.863Z,91.50
2017-09-28T23:55:37.062Z,91.40
2017-09-28T23:58:47.955Z,91.90
